Time;durP1;ratioP1;P1;durP2;ratioP2;P2;SDS_P1;SDS_P2;PMS_P1;PMS_P2;Temp;Humidity;BMP_temperature;BMP_pressure;BME280_temperature;BME280_humidity;BME280_pressure;Samples;Min_cycle;Max_cycle;Signal;HPM_P1;HPM_P2
2022/06/26 00:01:14;;;;;;;8.95;7.70;;;17.40;99.90;;;;;;5062880;28;20040;-64
2022/06/26 00:03:40;;;;;;;9.30;7.55;;;17.40;99.90;;;;;;5067198;28;20056;-64
2022/06/26 00:06:05;;;;;;;7.90;5.95;;;17.40;99.90;;;;;;5064306;28;20081;-64
2022/06/26 00:08:31;;;;;;;7.07;6.20;;;17.40;99.90;;;;;;5067560;28;20040;-63
2022/06/26 00:10:56;;;;;;;9.30;6.55;;;17.30;99.90;;;;;;5064400;28;20040;-64
2022/06/26 00:13:22;;;;;;;10.85;6.72;;;17.30;99.90;;;;;;5081945;28;20035;-64
2022/06/26 00:15:48;;;;;;;9.75;7.68;;;17.30;99.90;;;;;;5066169;28;20093;-64
2022/06/26 00:18:14;;;;;;;8.10;7.32;;;17.30;99.90;;;;;;5065370;28;20039;-64
2022/06/26 00:20:40;;;;;;;12.13;6.28;;;17.30;99.90;;;;;;5066647;28;20528;-64
2022/06/26 00:23:06;;;;;;;8.57;6.68;;;17.30;99.90;;;;;;5065105;28;20437;-64
2022/06/26 00:25:32;;;;;;;7.43;6.80;;;17.30;99.90;;;;;;5052383;28;20036;-64
2022/06/26 00:27:58;;;;;;;9.25;7.07;;;17.20;99.90;;;;;;5064724;28;20126;-64
2022/06/26 00:30:23;;;;;;;7.13;6.43;;;17.30;99.90;;;;;;5083394;28;20743;-64
2022/06/26 00:32:49;;;;;;;7.80;7.20;;;17.20;99.90;;;;;;5078336;28;20054;-64
2022/06/26 00:35:15;;;;;;;7.95;7.25;;;17.20;99.90;;;;;;5050257;28;20090;-64
2022/06/26 00:37:40;;;;;;;8.73;7.90;;;17.20;99.90;;;;;;5064204;28;20105;-64
2022/06/26 00:40:08;;;;;;;10.05;7.75;;;17.10;99.90;;;;;;5079771;28;20131;-63
2022/06/26 00:42:33;;;;;;;8.70;7.30;;;17.10;99.90;;;;;;5063303;28;21111;-64
2022/06/26 00:44:59;;;;;;;10.15;7.05;;;17.10;99.90;;;;;;5077841;28;20086;-64
2022/06/26 00:47:25;;;;;;;8.85;7.10;;;17.20;99.90;;;;;;5065513;28;20048;-64
2022/06/26 00:49:51;;;;;;;8.57;7.40;;;17.20;99.90;;;;;;5066150;28;20135;-64
2022/06/26 00:52:20;;;;;;;10.20;8.07;;;17.20;99.90;;;;;;5081566;28;20135;-64
2022/06/26 00:54:48;;;;;;;11.48;9.57;;;17.20;99.90;;;;;;5080225;28;20101;-64
2022/06/26 00:57:13;;;;;;;11.63;9.88;;;17.30;99.90;;;;;;5064509;28;20060;-64
2022/06/26 00:59:39;;;;;;;12.48;9.77;;;17.40;99.90;;;;;;5065284;28;20055;-64
2022/06/26 01:02:05;;;;;;;13.95;9.52;;;17.40;99.90;;;;;;5083057;28;20037;-64
2022/06/26 01:04:31;;;;;;;12.07;9.25;;;17.50;99.90;;;;;;5079879;28;20041;-64
2022/06/26 01:06:57;;;;;;;9.88;8.85;;;17.50;99.90;;;;;;5067100;28;20040;-63
2022/06/26 01:09:22;;;;;;;9.18;8.13;;;17.60;99.90;;;;;;5078870;28;20558;-64
2022/06/26 01:11:49;;;;;;;10.60;8.73;;;17.60;99.90;;;;;;5082022;28;20094;-64
2022/06/26 01:14:15;;;;;;;17.33;9.60;;;17.70;99.90;;;;;;5078897;28;20036;-64
2022/06/26 01:16:41;;;;;;;12.02;7.97;;;17.80;99.90;;;;;;5079674;28;20056;-64
2022/06/26 01:19:08;;;;;;;15.25;8.43;;;17.80;99.90;;;;;;5066055;28;20076;-64
2022/06/26 01:21:34;;;;;;;9.88;8.52;;;17.80;99.90;;;;;;5082074;28;20437;-64
2022/06/26 01:24:00;;;;;;;9.98;8.57;;;17.90;99.90;;;;;;5062762;28;20581;-64
2022/06/26 01:26:26;;;;;;;10.20;9.20;;;17.90;99.90;;;;;;5083155;28;20787;-66
2022/06/26 01:28:52;;;;;;;9.68;7.97;;;17.90;99.90;;;;;;5080139;28;20154;-66
2022/06/26 01:31:19;;;;;;;12.75;8.25;;;18.00;99.90;;;;;;5067567;28;20146;-66
2022/06/26 01:33:46;;;;;;;11.05;7.43;;;17.90;99.90;;;;;;5078533;28;20040;-66
2022/06/26 01:36:12;;;;;;;12.02;9.07;;;17.90;99.90;;;;;;5064626;28;20036;-66
2022/06/26 01:38:38;;;;;;;10.82;8.40;;;17.90;99.90;;;;;;5081347;28;20281;-66
2022/06/26 01:41:03;;;;;;;9.10;8.00;;;18.00;99.90;;;;;;5080582;28;20092;-66
2022/06/26 01:43:31;;;;;;;11.98;8.52;;;18.00;99.90;;;;;;5079604;28;20040;-66
2022/06/26 01:45:58;;;;;;;12.05;8.38;;;18.00;99.90;;;;;;5067089;28;20524;-66
2022/06/26 01:48:24;;;;;;;9.68;7.60;;;18.00;99.90;;;;;;5067581;28;20078;-66
2022/06/26 01:50:51;;;;;;;8.13;7.35;;;18.00;99.90;;;;;;5066268;28;20485;-66
2022/06/26 01:53:17;;;;;;;9.27;8.38;;;18.10;99.90;;;;;;5067062;28;20126;-66
2022/06/26 01:55:43;;;;;;;11.25;8.85;;;18.00;99.90;;;;;;5070653;28;20131;-66
2022/06/26 01:58:09;;;;;;;8.75;7.63;;;18.00;99.90;;;;;;5082938;28;20040;-66
2022/06/26 02:00:37;;;;;;;10.88;8.40;;;18.00;99.90;;;;;;5086346;28;20081;-66
2022/06/26 02:03:05;;;;;;;10.90;8.20;;;18.00;99.90;;;;;;5066184;28;20074;-66
2022/06/26 02:05:31;;;;;;;11.93;8.60;;;18.10;99.90;;;;;;5082638;28;20126;-66
2022/06/26 02:07:57;;;;;;;13.48;9.27;;;18.10;99.90;;;;;;5069360;28;20129;-66
2022/06/26 02:15:55;;;;;;;15.10;9.68;;;18.10;99.90;;;;;;5065322;28;20044;-65
2022/06/26 02:18:21;;;;;;;14.85;9.70;;;18.10;99.90;;;;;;5086295;28;20119;-65
2022/06/26 02:20:47;;;;;;;11.38;8.80;;;18.10;99.90;;;;;;5084402;28;20540;-65
2022/06/26 02:23:13;;;;;;;12.63;9.68;;;18.00;99.90;;;;;;5066150;28;20032;-65
2022/06/26 02:25:40;;;;;;;11.13;9.23;;;18.00;99.90;;;;;;5082909;28;20494;-66
2022/06/26 02:28:05;;;;;;;12.43;8.88;;;18.00;99.90;;;;;;5080791;28;20048;-65
2022/06/26 02:30:31;;;;;;;10.57;9.10;;;18.00;99.90;;;;;;5067067;28;20075;-66
2022/06/26 02:32:57;;;;;;;10.32;9.30;;;18.00;99.90;;;;;;5069622;28;20044;-66
2022/06/26 02:35:24;;;;;;;9.35;8.35;;;18.00;99.90;;;;;;5080580;28;20402;-66
2022/06/26 02:37:50;;;;;;;10.77;8.73;;;17.90;99.90;;;;;;5056337;28;20043;-66
2022/06/26 02:40:16;;;;;;;9.63;8.63;;;17.90;99.90;;;;;;5081631;28;20437;-66
2022/06/26 02:42:43;;;;;;;10.20;8.32;;;17.90;99.90;;;;;;5082872;28;20036;-66
2022/06/26 02:45:09;;;;;;;11.30;8.50;;;17.90;99.90;;;;;;5083894;28;20549;-65
2022/06/26 02:47:34;;;;;;;8.93;7.63;;;17.80;99.90;;;;;;5079033;28;20127;-66
2022/06/26 02:50:02;;;;;;;8.90;7.43;;;17.80;99.90;;;;;;5083864;28;20033;-66
2022/06/26 02:52:28;;;;;;;8.63;7.38;;;17.70;99.90;;;;;;5083961;28;20398;-66
2022/06/26 02:54:53;;;;;;;7.28;6.57;;;17.70;99.90;;;;;;5068236;28;20032;-66
2022/06/26 02:57:19;;;;;;;9.05;7.32;;;17.70;99.90;;;;;;5083223;28;20394;-66
2022/06/26 02:59:45;;;;;;;9.00;6.80;;;17.60;99.90;;;;;;5066710;28;20487;-66
2022/06/26 03:02:10;;;;;;;11.02;7.10;;;17.60;99.90;;;;;;5080101;28;20490;-66
2022/06/26 03:04:36;;;;;;;8.65;7.72;;;17.60;99.90;;;;;;5064295;28;20532;-66
2022/06/26 03:07:01;;;;;;;8.50;7.70;;;17.60;99.90;;;;;;5067941;28;20045;-65
2022/06/26 03:09:27;;;;;;;7.15;6.43;;;17.50;99.90;;;;;;5085016;28;20039;-65
2022/06/26 03:11:52;;;;;;;8.65;6.53;;;17.50;99.90;;;;;;5067409;28;20062;-65
2022/06/26 03:14:18;;;;;;;7.55;6.50;;;17.50;99.90;;;;;;5066804;28;20039;-66
2022/06/26 03:16:44;;;;;;;7.50;5.85;;;17.50;99.90;;;;;;5080220;28;20081;-65
2022/06/26 03:19:09;;;;;;;7.13;6.10;;;17.40;99.90;;;;;;5071625;28;20481;-65
2022/06/26 03:21:35;;;;;;;6.40;5.80;;;17.50;99.90;;;;;;5081231;28;20036;-65
2022/06/26 03:24:03;;;;;;;5.20;4.75;;;17.40;99.90;;;;;;5081011;28;20032;-65
2022/06/26 03:26:37;;;;;;;4.57;4.15;;;17.40;99.90;;;;;;5082347;28;20035;-65
2022/06/26 03:29:05;;;;;;;5.78;4.88;;;17.40;99.90;;;;;;5067054;28;20036;-65
2022/06/26 03:31:31;;;;;;;4.10;3.55;;;17.30;99.90;;;;;;5063750;28;20035;-65
2022/06/26 03:33:57;;;;;;;6.75;4.07;;;17.40;99.90;;;;;;5083674;28;20102;-65
2022/06/26 03:36:24;;;;;;;4.88;3.72;;;17.30;99.90;;;;;;5081925;28;20043;-65
2022/06/26 03:38:50;;;;;;;5.32;3.70;;;17.30;99.90;;;;;;5080451;28;21152;-65
2022/06/26 03:41:15;;;;;;;5.05;3.25;;;17.50;99.90;;;;;;5069359;28;20054;-65
2022/06/26 03:43:41;;;;;;;5.63;3.30;;;17.20;99.90;;;;;;5066908;28;20036;-65
2022/06/26 03:46:07;;;;;;;5.00;3.28;;;17.20;99.90;;;;;;5079930;28;20433;-65
2022/06/26 03:48:33;;;;;;;5.00;3.45;;;17.20;99.90;;;;;;5068205;28;20032;-65
2022/06/26 03:50:58;;;;;;;4.43;3.40;;;17.10;99.90;;;;;;5067097;28;20077;-66
2022/06/26 03:53:24;;;;;;;4.05;2.70;;;17.10;99.90;;;;;;5083518;28;20059;-65
2022/06/26 03:55:51;;;;;;;5.47;2.60;;;17.10;99.90;;;;;;5064804;28;20043;-66
2022/06/26 03:58:17;;;;;;;8.00;3.47;;;17.10;99.90;;;;;;5080076;28;20463;-64
2022/06/26 04:00:42;;;;;;;4.65;2.60;;;17.10;99.90;;;;;;5067698;28;20044;-65
2022/06/26 04:03:08;;;;;;;4.18;2.75;;;17.10;99.90;;;;;;5047465;28;20036;-64
2022/06/26 04:05:37;;;;;;;3.45;2.60;;;17.00;99.90;;;;;;5065524;28;20229;-65
2022/06/26 04:08:03;;;;;;;3.15;2.00;;;17.00;99.90;;;;;;5085350;28;20044;-65
2022/06/26 04:10:29;;;;;;;2.63;1.83;;;17.00;99.90;;;;;;5083322;28;20048;-65
2022/06/26 04:12:57;;;;;;;2.97;2.17;;;17.10;99.90;;;;;;5082527;28;20044;-65
2022/06/26 04:15:23;;;;;;;7.60;2.17;;;17.10;99.90;;;;;;5079314;28;20612;-65
2022/06/26 04:17:49;;;;;;;2.72;2.13;;;17.20;99.90;;;;;;5064700;28;20097;-65
2022/06/26 04:20:14;;;;;;;3.38;2.30;;;17.30;99.90;;;;;;5081011;28;20064;-65
2022/06/26 04:22:40;;;;;;;2.35;1.77;;;17.40;99.90;;;;;;5082686;28;20040;-65
2022/06/26 04:25:06;;;;;;;2.30;2.10;;;17.40;99.90;;;;;;5081493;28;20048;-65
2022/06/26 04:27:31;;;;;;;3.15;2.60;;;17.50;99.90;;;;;;5080835;28;20464;-65
2022/06/26 04:29:57;;;;;;;2.53;2.20;;;17.50;99.90;;;;;;5065909;28;20150;-65
2022/06/26 04:32:22;;;;;;;3.40;2.33;;;17.70;99.90;;;;;;5080454;28;20040;-65
2022/06/26 04:34:48;;;;;;;2.22;2.03;;;17.90;99.90;;;;;;5064518;28;20051;-65
2022/06/26 04:37:13;;;;;;;2.53;1.75;;;18.50;99.90;;;;;;5066968;28;20043;-65
2022/06/26 04:39:39;;;;;;;2.10;1.15;;;19.30;99.90;;;;;;5065729;28;20041;-65
2022/06/26 04:42:05;;;;;;;2.25;1.50;;;20.00;99.90;;;;;;5063295;28;20037;-65
2022/06/26 04:44:30;;;;;;;4.82;1.48;;;20.30;99.90;;;;;;5065025;28;20036;-65
2022/06/26 04:46:56;;;;;;;1.58;1.08;;;20.40;99.90;;;;;;5078507;28;20098;-65
2022/06/26 04:49:21;;;;;;;1.10;1.00;;;21.00;99.90;;;;;;5066710;28;20040;-65
2022/06/26 04:51:47;;;;;;;1.77;1.20;;;21.80;99.90;;;;;;5082247;28;20060;-65
2022/06/26 04:54:13;;;;;;;1.17;1.08;;;22.10;99.90;;;;;;5049522;28;20097;-65
2022/06/26 04:56:38;;;;;;;1.92;1.05;;;22.10;99.90;;;;;;5079675;28;20386;-65
2022/06/26 04:59:05;;;;;;;1.65;1.25;;;21.80;99.90;;;;;;5079913;28;20035;-65
2022/06/26 05:01:35;;;;;;;1.60;1.50;;;21.90;99.90;;;;;;5081088;28;20111;-65
2022/06/26 05:04:01;;;;;;;2.25;1.65;;;21.50;99.90;;;;;;5081477;28;20359;-65
2022/06/26 05:06:27;;;;;;;3.83;2.05;;;21.00;99.90;;;;;;5084378;28;20035;-65
2022/06/26 05:08:52;;;;;;;12.05;2.65;;;20.70;99.90;;;;;;5081526;28;21265;-65
2022/06/26 05:11:19;;;;;;;2.47;2.28;;;20.30;99.90;;;;;;5079101;28;20040;-65
2022/06/26 05:13:46;;;;;;;3.35;2.13;;;20.00;99.90;;;;;;5068132;28;20048;-65
2022/06/26 05:16:11;;;;;;;5.55;2.90;;;19.80;99.90;;;;;;5069636;28;20135;-65
2022/06/26 05:18:37;;;;;;;4.00;3.22;;;19.60;99.90;;;;;;5083581;28;20130;-65
2022/06/26 05:21:03;;;;;;;5.22;3.38;;;19.50;99.90;;;;;;5070366;28;20478;-65
2022/06/26 05:23:28;;;;;;;5.22;3.65;;;19.30;99.90;;;;;;5069210;28;20520;-65
2022/06/26 05:25:54;;;;;;;4.18;3.08;;;19.20;99.90;;;;;;5068676;28;20512;-65
2022/06/26 05:28:20;;;;;;;4.68;3.42;;;19.00;99.90;;;;;;5069913;28;20086;-65
2022/06/26 05:30:46;;;;;;;4.85;4.05;;;19.00;99.90;;;;;;5082176;28;20052;-65
2022/06/26 05:33:11;;;;;;;4.68;4.25;;;18.80;99.90;;;;;;5067047;28;20435;-65
2022/06/26 05:35:37;;;;;;;5.55;4.97;;;18.70;99.90;;;;;;5069902;28;20039;-65
2022/06/26 05:38:03;;;;;;;5.57;4.78;;;18.70;99.90;;;;;;5087095;28;20032;-65
2022/06/26 05:40:29;;;;;;;5.60;4.88;;;18.60;99.90;;;;;;5070440;28;20028;-65
2022/06/26 05:42:58;;;;;;;8.32;7.15;;;18.50;99.90;;;;;;5067952;28;20493;-65
2022/06/26 05:45:23;;;;;;;7.22;6.53;;;18.50;99.90;;;;;;5088013;28;20390;-65
2022/06/26 05:47:49;;;;;;;8.65;7.00;;;18.40;99.90;;;;;;5070428;28;20044;-65
2022/06/26 05:50:15;;;;;;;9.45;6.95;;;18.30;99.90;;;;;;5084661;28;20428;-65
2022/06/26 05:52:41;;;;;;;7.90;7.10;;;18.40;99.90;;;;;;5051475;28;20048;-65
2022/06/26 05:55:07;;;;;;;7.20;6.57;;;18.30;99.90;;;;;;5063297;28;20048;-65
2022/06/26 05:57:33;;;;;;;6.88;6.28;;;18.30;99.90;;;;;;5085417;28;20039;-65
2022/06/26 05:59:59;;;;;;;6.75;6.07;;;18.30;99.90;;;;;;5084422;28;20040;-65
2022/06/26 06:02:24;;;;;;;7.38;6.65;;;18.40;99.90;;;;;;5084325;28;20032;-65
2022/06/26 06:04:50;;;;;;;7.85;7.15;;;18.20;99.90;;;;;;5068914;28;20502;-65
2022/06/26 06:07:16;;;;;;;7.22;6.53;;;18.30;99.90;;;;;;5067075;28;20287;-65
2022/06/26 06:09:41;;;;;;;8.57;7.68;;;18.30;99.90;;;;;;5085502;28;20032;-65
2022/06/26 06:12:08;;;;;;;10.07;8.77;;;18.30;99.90;;;;;;5080896;28;20547;-64
2022/06/26 06:14:33;;;;;;;10.52;9.27;;;18.40;99.90;;;;;;5084206;28;20063;-65
2022/06/26 06:17:35;;;;;;;10.95;9.98;;;18.50;99.90;;;;;;5068529;28;20032;-65
2022/06/26 06:19:44;;;;;;;12.38;11.18;;;18.50;99.90;;;;;;5085019;28;20036;-65
2022/06/26 06:22:10;;;;;;;11.98;10.80;;;18.60;99.90;;;;;;5063391;28;20051;-65
2022/06/26 06:24:35;;;;;;;12.02;10.95;;;18.70;99.90;;;;;;5083668;28;20040;-65
2022/06/26 06:27:01;;;;;;;12.32;11.20;;;18.70;99.90;;;;;;5084494;28;20040;-65
2022/06/26 06:29:27;;;;;;;11.95;10.85;;;18.80;99.90;;;;;;5083985;28;20054;-65
2022/06/26 06:31:52;;;;;;;13.55;12.18;;;18.80;99.90;;;;;;5060769;28;20043;-65
2022/06/26 06:34:18;;;;;;;13.73;12.52;;;18.90;99.90;;;;;;5064753;28;20032;-65
2022/06/26 06:36:43;;;;;;;13.93;11.85;;;18.90;99.90;;;;;;5083857;28;20067;-65
2022/06/26 06:39:09;;;;;;;13.32;11.88;;;18.90;99.90;;;;;;5066019;28;20410;-65
2022/06/26 06:41:34;;;;;;;13.27;11.95;;;18.90;99.90;;;;;;5063762;28;20434;-65
2022/06/26 06:44:00;;;;;;;13.23;11.93;;;18.90;99.90;;;;;;5067335;28;20032;-65
2022/06/26 06:46:25;;;;;;;14.57;13.05;;;18.90;99.90;;;;;;5082298;28;20101;-65
2022/06/26 06:48:51;;;;;;;14.00;12.57;;;18.90;99.90;;;;;;5078368;28;20040;-65
2022/06/26 06:51:17;;;;;;;13.93;12.57;;;18.80;99.90;;;;;;5065608;28;20472;-65
2022/06/26 06:53:42;;;;;;;14.60;12.73;;;18.70;99.90;;;;;;5084394;28;20028;-65
2022/06/26 06:56:08;;;;;;;15.07;11.80;;;18.70;99.90;;;;;;5078242;28;20044;-65
2022/06/26 06:58:33;;;;;;;13.95;12.55;;;18.90;99.90;;;;;;5065398;28;20040;-65
2022/06/26 07:00:59;;;;;;;14.15;12.65;;;19.10;99.90;;;;;;5060727;28;20481;-65
2022/06/26 07:03:25;;;;;;;12.63;11.43;;;19.30;99.90;;;;;;5081537;28;20033;-65
2022/06/26 07:05:50;;;;;;;13.02;11.82;;;19.70;99.90;;;;;;5061230;28;20032;-65
2022/06/26 07:08:16;;;;;;;11.68;10.60;;;19.80;99.90;;;;;;5064188;28;20501;-65
2022/06/26 07:10:42;;;;;;;12.90;11.55;;;19.90;99.90;;;;;;5051177;28;20040;-65
2022/06/26 07:13:10;;;;;;;12.98;11.60;;;19.80;99.90;;;;;;5079131;28;20509;-65
2022/06/26 07:15:35;;;;;;;14.38;12.98;;;19.80;99.90;;;;;;5059418;28;20039;-65
2022/06/26 07:18:01;;;;;;;13.60;12.32;;;19.80;99.90;;;;;;5077419;28;20044;-66
2022/06/26 07:20:27;;;;;;;13.10;11.90;;;19.80;99.90;;;;;;5081644;28;20044;-65
2022/06/26 07:22:52;;;;;;;13.90;12.70;;;19.70;99.90;;;;;;5061551;28;20063;-65
2022/06/26 07:25:19;;;;;;;14.35;12.90;;;19.60;99.90;;;;;;5063133;28;20113;-65
2022/06/26 07:27:45;;;;;;;13.88;12.48;;;19.60;99.90;;;;;;5078530;28;20056;-65
2022/06/26 07:30:12;;;;;;;12.75;11.50;;;19.80;99.90;;;;;;5057961;28;20036;-66
2022/06/26 07:32:37;;;;;;;14.18;12.07;;;20.10;99.90;;;;;;5063256;28;20040;-65
2022/06/26 07:35:04;;;;;;;13.45;11.88;;;20.40;99.90;;;;;;5056923;28;20402;-65
2022/06/26 07:37:29;;;;;;;14.50;13.00;;;20.80;99.90;;;;;;5078741;28;20846;-65
2022/06/26 07:39:55;;;;;;;16.17;12.73;;;21.20;99.90;;;;;;5074310;28;20459;-65
2022/06/26 07:42:21;;;;;;;13.18;11.88;;;21.60;99.90;;;;;;5044470;28;20368;-65
2022/06/26 07:44:46;;;;;;;12.80;11.50;;;22.00;99.90;;;;;;5078963;28;20044;-65
2022/06/26 07:47:12;;;;;;;12.73;11.52;;;22.00;99.90;;;;;;5062737;28;20383;-65
2022/06/26 07:49:38;;;;;;;12.63;11.40;;;21.90;99.90;;;;;;5077108;28;20040;-65
2022/06/26 07:52:03;;;;;;;13.48;11.48;;;21.90;99.90;;;;;;5078479;28;20034;-65
2022/06/26 07:54:29;;;;;;;12.30;11.10;;;22.00;99.90;;;;;;5075418;28;20041;-65
2022/06/26 07:56:55;;;;;;;14.40;10.65;;;22.20;99.90;;;;;;5062849;28;20075;-65
2022/06/26 07:59:20;;;;;;;13.60;9.30;;;22.20;99.90;;;;;;5080769;28;20044;-65
2022/06/26 08:01:46;;;;;;;9.55;8.68;;;22.30;99.90;;;;;;5079525;28;20048;-65
2022/06/26 08:04:11;;;;;;;9.45;8.55;;;22.30;99.90;;;;;;5043522;28;20032;-65
2022/06/26 08:06:37;;;;;;;9.98;7.40;;;22.70;99.90;;;;;;5080756;28;20032;-65
2022/06/26 08:09:03;;;;;;;7.28;6.60;;;23.10;99.90;;;;;;5066834;28;20032;-65
2022/06/26 08:11:28;;;;;;;6.80;5.97;;;23.20;99.90;;;;;;5062325;28;20460;-65
2022/06/26 08:13:54;;;;;;;8.07;5.80;;;23.00;99.90;;;;;;5065802;28;20036;-65
2022/06/26 08:16:20;;;;;;;5.53;4.88;;;22.90;99.90;;;;;;5080069;28;20795;-65
2022/06/26 08:18:46;;;;;;;5.85;4.78;;;23.00;99.90;;;;;;5078716;28;20853;-66
2022/06/26 08:23:56;;;;;;;5.80;5.30;;;23.30;99.90;;;;;;5061272;28;20130;-65
2022/06/26 08:26:22;;;;;;;6.47;3.92;;;23.60;99.90;;;;;;5061030;28;20367;-64
2022/06/26 08:28:48;;;;;;;4.05;3.22;;;23.40;99.90;;;;;;5080467;28;20047;-65
2022/06/26 08:31:14;;;;;;;9.90;5.22;;;23.20;99.90;;;;;;5078148;28;20044;-65
2022/06/26 08:33:40;;;;;;;6.50;4.40;;;23.30;99.90;;;;;;5076504;28;20045;-65
2022/06/26 08:36:06;;;;;;;5.60;2.90;;;23.50;99.90;;;;;;5060656;28;20096;-65
2022/06/26 08:38:31;;;;;;;4.78;2.88;;;23.60;99.90;;;;;;5061100;28;20052;-65
2022/06/26 08:41:00;;;;;;;4.30;3.28;;;23.90;99.90;;;;;;5077610;28;20043;-65
2022/06/26 08:43:26;;;;;;;3.85;3.45;;;24.10;99.90;;;;;;5081974;28;20032;-65
2022/06/26 08:45:53;;;;;;;5.43;3.47;;;24.50;99.90;;;;;;5062844;28;20028;-65
2022/06/26 08:48:20;;;;;;;5.53;2.35;;;24.80;99.90;;;;;;5062599;28;20047;-65
2022/06/26 08:50:46;;;;;;;5.07;1.90;;;25.00;99.90;;;;;;5062617;28;20044;-65
2022/06/26 08:53:14;;;;;;;4.28;1.40;;;25.20;99.90;;;;;;5077268;28;20066;-65
2022/06/26 08:55:40;;;;;;;4.53;1.27;;;25.40;99.90;;;;;;5086105;28;20040;-65
2022/06/26 08:58:06;;;;;;;3.28;1.13;;;25.30;99.90;;;;;;5063045;28;20045;-65
2022/06/26 09:00:32;;;;;;;4.35;1.67;;;25.30;99.90;;;;;;5081106;28;20054;-64
2022/06/26 09:02:57;;;;;;;2.95;1.60;;;25.20;99.90;;;;;;5049909;28;20044;-65
2022/06/26 09:05:23;;;;;;;4.80;1.38;;;25.30;99.90;;;;;;5081294;28;20062;-65
2022/06/26 09:07:52;;;;;;;4.50;2.05;;;25.30;99.90;;;;;;5082649;28;20040;-65
2022/06/26 09:10:18;;;;;;;4.20;2.70;;;25.40;99.90;;;;;;5066934;28;20047;-65
2022/06/26 09:12:57;;;;;;;3.80;2.05;;;25.30;99.90;;;;;;5064354;28;20075;-65
2022/06/26 09:15:24;;;;;;;2.50;1.88;;;25.30;99.90;;;;;;5064336;28;20306;-64
2022/06/26 09:18:10;;;;;;;2.35;1.52;;;25.30;99.90;;;;;;5079069;28;20509;-65
2022/06/26 09:20:49;;;;;;;2.80;1.80;;;25.40;99.90;;;;;;5081097;28;20032;-65
2022/06/26 09:23:15;;;;;;;2.83;1.80;;;25.30;99.90;;;;;;5064871;28;20040;-65
2022/06/26 09:25:45;;;;;;;1.90;1.70;;;25.40;99.90;;;;;;5083317;28;20716;-65
2022/06/26 09:28:17;;;;;;;3.38;1.50;;;25.40;99.90;;;;;;5083655;28;20036;-65
2022/06/26 09:30:53;;;;;;;3.35;1.85;;;25.30;99.90;;;;;;5082469;28;20044;-65
2022/06/26 09:33:40;;;;;;;3.97;1.92;;;25.30;99.90;;;;;;5079799;28;20048;-65
2022/06/26 09:36:13;;;;;;;2.30;1.90;;;25.10;99.90;;;;;;5070588;28;20040;-65
2022/06/26 09:38:38;;;;;;;4.82;2.10;;;25.00;99.90;;;;;;5080666;28;20960;-65
2022/06/26 09:41:06;;;;;;;2.95;1.90;;;24.80;99.90;;;;;;5083449;28;20040;-65
2022/06/26 09:43:37;;;;;;;4.15;2.13;;;24.50;99.90;;;;;;5060957;28;21281;-65
2022/06/26 09:46:08;;;;;;;2.08;1.65;;;24.40;99.90;;;;;;5082554;28;20047;-65
2022/06/26 09:48:34;;;;;;;2.65;1.70;;;24.30;99.90;;;;;;5083367;28;20032;-65
2022/06/26 09:51:01;;;;;;;2.70;1.60;;;24.10;99.90;;;;;;5061292;28;20130;-65
2022/06/26 09:53:28;;;;;;;3.53;1.50;;;23.90;99.90;;;;;;5080599;28;20508;-65
2022/06/26 09:55:55;;;;;;;2.03;1.30;;;23.90;99.90;;;;;;5068925;28;20090;-65
2022/06/26 09:58:22;;;;;;;2.35;1.15;;;24.10;99.90;;;;;;5064382;28;20050;-65
2022/06/26 10:06:26;;;;;;;3.95;1.33;;;24.00;99.90;;;;;;5084668;28;20048;-65
2022/06/26 10:09:00;;;;;;;3.08;1.70;;;24.10;99.90;;;;;;5084012;28;20045;-65
2022/06/26 10:11:29;;;;;;;2.90;1.23;;;24.10;99.90;;;;;;5065540;28;20043;-65
2022/06/26 10:13:59;;;;;;;3.92;1.33;;;24.10;99.90;;;;;;5082637;28;20055;-65
2022/06/26 10:16:30;;;;;;;3.88;1.30;;;24.00;99.90;;;;;;5082042;28;20036;-65
2022/06/26 10:19:14;;;;;;;2.70;1.15;;;24.00;99.90;;;;;;5079415;28;20079;-65
2022/06/26 10:21:40;;;;;;;3.08;1.30;;;23.90;99.90;;;;;;5065789;28;20038;-65
2022/06/26 10:24:06;;;;;;;2.70;1.45;;;23.80;99.90;;;;;;5082528;28;20042;-65
2022/06/26 10:26:32;;;;;;;3.80;1.50;;;23.80;99.90;;;;;;5078734;28;20032;-65
2022/06/26 10:29:08;;;;;;;4.32;2.15;;;23.60;99.90;;;;;;5078896;28;20049;-65
2022/06/26 10:31:50;;;;;;;3.80;1.33;;;23.60;99.90;;;;;;5065309;28;20128;-65
2022/06/26 10:34:23;;;;;;;3.60;1.38;;;23.50;99.90;;;;;;5065740;28;20048;-65
2022/06/26 10:37:07;;;;;;;3.05;1.63;;;23.30;99.90;;;;;;5064388;28;20124;-65
2022/06/26 10:39:38;;;;;;;2.55;1.40;;;23.30;99.90;;;;;;5063749;28;20044;-65
2022/06/26 10:45:32;;;;;;;3.00;1.58;;;23.10;99.90;;;;;;5051952;28;20036;-65
2022/06/26 10:48:00;;;;;;;2.72;1.40;;;23.00;99.90;;;;;;5062766;28;20634;-65
2022/06/26 10:50:31;;;;;;;2.35;1.58;;;23.00;99.90;;;;;;5081459;28;20627;-65
2022/06/26 10:53:16;;;;;;;3.80;1.50;;;22.90;99.90;;;;;;5077716;28;20135;-65
2022/06/26 10:55:45;;;;;;;3.03;1.30;;;23.00;99.90;;;;;;5079510;28;20044;-64
2022/06/26 10:58:21;;;;;;;2.50;1.40;;;23.00;99.90;;;;;;5082750;28;20040;-65
2022/06/26 11:00:48;;;;;;;4.13;1.73;;;23.00;99.90;;;;;;5081203;28;20038;-65
2022/06/26 11:03:15;;;;;;;2.63;1.20;;;23.00;99.90;;;;;;5063893;28;20040;-65
2022/06/26 11:06:02;;;;;;;6.07;1.20;;;23.00;99.90;;;;;;5063331;28;20537;-65
2022/06/26 11:08:31;;;;;;;4.88;1.33;;;23.20;99.90;;;;;;5063928;28;20947;-65
2022/06/26 11:11:08;;;;;;;4.85;1.70;;;23.60;99.90;;;;;;5081688;28;20085;-65
2022/06/26 11:13:35;;;;;;;3.88;1.27;;;23.60;99.90;;;;;;5065372;28;20145;-65
2022/06/26 11:16:02;;;;;;;6.68;1.92;;;23.70;99.90;;;;;;5066497;28;20054;-65
2022/06/26 11:18:35;;;;;;;2.60;1.40;;;23.80;99.90;;;;;;5081072;28;20040;-65
2022/06/26 11:21:01;;;;;;;4.68;1.48;;;23.70;99.90;;;;;;5079152;28;20028;-65
2022/06/26 11:23:36;;;;;;;3.65;1.00;;;23.60;99.90;;;;;;5062496;28;20426;-65
2022/06/26 11:26:07;;;;;;;3.15;1.50;;;23.50;99.90;;;;;;5079357;28;20052;-65
2022/06/26 11:28:41;;;;;;;2.00;1.10;;;23.50;99.90;;;;;;5065746;28;20044;-65
2022/06/26 11:31:18;;;;;;;4.85;1.85;;;23.40;99.90;;;;;;5066002;28;20036;-64
2022/06/26 11:33:44;;;;;;;3.33;1.27;;;23.30;99.90;;;;;;5079779;28;20048;-65
2022/06/26 11:36:16;;;;;;;4.13;1.27;;;23.40;99.90;;;;;;5082971;28;20028;-65
2022/06/26 11:38:54;;;;;;;2.22;1.50;;;23.40;99.90;;;;;;5064722;28;20562;-65
2022/06/26 11:41:21;;;;;;;4.47;1.52;;;23.50;99.90;;;;;;5066692;28;20047;-64
2022/06/26 11:43:49;;;;;;;2.80;1.27;;;23.50;99.90;;;;;;5063394;28;20114;-64
2022/06/26 11:46:15;;;;;;;3.75;1.33;;;23.40;99.90;;;;;;5082525;28;20393;-64
2022/06/26 11:48:41;;;;;;;2.30;0.93;;;23.40;99.90;;;;;;5065546;28;20051;-65
2022/06/26 11:51:10;;;;;;;5.10;1.20;;;23.50;99.90;;;;;;5065146;28;20092;-64
2022/06/26 11:53:37;;;;;;;3.40;1.48;;;23.40;99.90;;;;;;5081602;28;20031;-64
2022/06/26 11:56:04;;;;;;;3.15;1.33;;;23.50;99.90;;;;;;5062467;28;20054;-65
2022/06/26 11:58:32;;;;;;;3.13;1.27;;;23.50;99.90;;;;;;5061255;28;20041;-65
2022/06/26 12:01:08;;;;;;;3.25;1.10;;;23.50;99.90;;;;;;5083857;28;20036;-64
2022/06/26 12:03:34;;;;;;;;;;;23.50;99.90;;;;;;5059886;28;20040;-64
2022/06/26 12:06:00;;;;;;;3.92;1.15;;;23.50;99.90;;;;;;5065526;28;19967;-65
2022/06/26 12:08:30;;;;;;;5.80;2.03;;;23.40;99.90;;;;;;5062959;28;20255;-64
2022/06/26 12:10:55;;;;;;;4.70;1.33;;;23.40;99.90;;;;;;5083844;28;20059;-64
2022/06/26 12:13:24;;;;;;;3.70;1.63;;;23.30;99.90;;;;;;5083069;28;20028;-64
2022/06/26 12:15:50;;;;;;;4.15;1.50;;;23.30;99.90;;;;;;5062701;28;20577;-64
2022/06/26 12:18:15;;;;;;;3.67;1.50;;;23.30;99.90;;;;;;5081264;28;20035;-64
2022/06/26 12:20:42;;;;;;;5.25;2.30;;;23.40;99.90;;;;;;5080857;28;20036;-64
2022/06/26 12:23:09;;;;;;;6.65;1.40;;;23.40;99.90;;;;;;5063382;28;20093;-65
2022/06/26 12:25:38;;;;;;;3.25;1.50;;;23.20;99.90;;;;;;5066402;28;20497;-65
2022/06/26 12:28:04;;;;;;;6.28;1.67;;;23.10;99.90;;;;;;5061293;28;20047;-65
2022/06/26 12:30:35;;;;;;;3.65;1.42;;;23.10;99.90;;;;;;5082025;28;20040;-64
2022/06/26 12:33:04;;;;;;;4.10;1.45;;;23.00;99.90;;;;;;5062497;28;20047;-64
2022/06/26 12:35:31;;;;;;;3.13;1.52;;;23.00;99.90;;;;;;5079589;28;20082;-64
2022/06/26 12:37:58;;;;;;;6.88;2.70;;;23.00;99.90;;;;;;5062088;28;20052;-64
2022/06/26 12:40:24;;;;;;;3.80;1.60;;;22.90;99.90;;;;;;5064038;28;20044;-64
2022/06/26 12:42:50;;;;;;;3.53;1.52;;;22.90;99.90;;;;;;5063832;28;20488;-64
2022/06/26 12:45:15;;;;;;;2.35;1.33;;;22.90;99.90;;;;;;5082067;28;20039;-65
2022/06/26 12:47:41;;;;;;;6.07;2.08;;;22.90;99.90;;;;;;5063653;28;20131;-64
2022/06/26 12:50:08;;;;;;;3.78;1.65;;;22.90;99.90;;;;;;5077267;28;20075;-64
2022/06/26 12:52:34;;;;;;;4.18;1.98;;;22.70;99.90;;;;;;5060834;28;20040;-64
2022/06/26 12:55:01;;;;;;;3.42;1.98;;;22.70;99.90;;;;;;5078390;28;20450;-64
2022/06/26 12:57:27;;;;;;;2.70;1.60;;;22.80;99.90;;;;;;5081000;28;20401;-64
2022/06/26 12:59:52;;;;;;;3.05;1.88;;;22.70;99.90;;;;;;5063511;28;20047;-64